Great — TCYV6 — position and weather

sailwx.info

Track history (hours):
 
Tides and Currents Weather Stations Pressure Air Temp Water Temp Dewpoint Dewpoint Depression Visibility Wind Speed Wind Dir Waves Ship Positions

Great

Last reported at 2015-Jul-26 07:24 UTC. Time now 2015-Aug-03 21:19 UTC.
Position N 37°16' E 027°34'.
Warning: this ship's position is 8 days out of date.

Length 187 m; draft 6.4 m.

Type: Cargo ship. MMSI: 271042241.

Date/timePositionNaut miles runAvg speedWind from/ knotsBaromVisibWave heightAir tempDewpointWater temp
2015-Jul-26 07:24N 37°16' E 027°34'19 2.4
2015-Jul-25 23:33N 37°13' E 027°11'1212.2
2015-Jul-25 22:33N 37°14' E 026°56'1212.0
2015-Jul-25 21:33N 37°12' E 026°41'1211.8
2015-Jul-25 20:32N 37°09' E 026°27'1311.7
2015-Jul-25 19:28N 37°06' E 026°12'1112.0
2015-Jul-25 18:31N 37°03' E 025°58'2412.0
2015-Jul-25 16:32N 36°55' E 025°30'1711.9
2015-Jul-25 15:05N 36°49' E 025°09'812.1
2015-Jul-25 14:26N 36°46' E 025°00'1112.2
2015-Jul-25 13:31N 36°43' E 024°47'1312.4
2015-Jul-25 12:28N 36°38' E 024°32'3612.1
2015-Jul-25 09:30N 36°28' E 023°49'1111.9
2015-Jul-25 08:33N 36°26' E 023°35'1211.4
2015-Jul-25 07:32N 36°25' E 023°21'  
2015-Jul-19 14:31N 43°38' E 014°29'  
2015-Jul-16 21:30N 36°32' E 024°58'1111.0
2015-Jul-16 20:31N 36°33' E 025°11'1110.8
2015-Jul-16 19:33N 36°35' E 025°24'1111.1
2015-Jul-16 18:33N 36°39' E 025°37'1111.1
2015-Jul-16 17:32N 36°44' E 025°50'1111.0
2015-Jul-16 16:33N 36°48' E 026°02'1110.6
2015-Jul-16 15:33N 36°52' E 026°14'1010.4
2015-Jul-16 14:33N 36°57' E 026°26'1110.7
2015-Jul-16 13:33N 37°04' E 026°36'1111.0
2015-Jul-16 12:33N 37°13' E 026°44'  
Track history (hours):
 
Tides and Currents Weather Stations Pressure Air Temp Water Temp Dewpoint Dewpoint Depression Visibility Wind Speed Wind Dir Waves Ship Positions

Great

Last reported at 2015-Jul-26 07:24 UTC. Time now 2015-Aug-03 21:19 UTC.
Position N 37°16' E 027°34'.
Warning: this ship's position is 8 days out of date.

Length 187 m; draft 6.4 m.

Type: Cargo ship. MMSI: 271042241.

Date/timePositionNaut miles runAvg speedWind from/ knotsBaromVisibWave heightAir tempDewpointWater temp
2015-Jul-26 07:24N 37°16' E 027°34'19 2.4
2015-Jul-25 23:33N 37°13' E 027°11'1212.2
2015-Jul-25 22:33N 37°14' E 026°56'1212.0
2015-Jul-25 21:33N 37°12' E 026°41'1211.8
2015-Jul-25 20:32N 37°09' E 026°27'1311.7
2015-Jul-25 19:28N 37°06' E 026°12'1112.0
2015-Jul-25 18:31N 37°03' E 025°58'2412.0
2015-Jul-25 16:32N 36°55' E 025°30'1711.9
2015-Jul-25 15:05N 36°49' E 025°09'812.1
2015-Jul-25 14:26N 36°46' E 025°00'1112.2
2015-Jul-25 13:31N 36°43' E 024°47'1312.4
2015-Jul-25 12:28N 36°38' E 024°32'3612.1
2015-Jul-25 09:30N 36°28' E 023°49'1111.9
2015-Jul-25 08:33N 36°26' E 023°35'1211.4
2015-Jul-25 07:32N 36°25' E 023°21'  
2015-Jul-19 14:31N 43°38' E 014°29'  
2015-Jul-16 21:30N 36°32' E 024°58'1111.0
2015-Jul-16 20:31N 36°33' E 025°11'1110.8
2015-Jul-16 19:33N 36°35' E 025°24'1111.1
2015-Jul-16 18:33N 36°39' E 025°37'1111.1
2015-Jul-16 17:32N 36°44' E 025°50'1111.0
2015-Jul-16 16:33N 36°48' E 026°02'1110.6
2015-Jul-16 15:33N 36°52' E 026°14'1010.4
2015-Jul-16 14:33N 36°57' E 026°26'1110.7
2015-Jul-16 13:33N 37°04' E 026°36'1111.0
2015-Jul-16 12:33N 37°13' E 026°44'  

Dump ship's entire track history